sensor_id;sensor_type;location;lat;lon;timestamp;temperature;humidity
5392;DHT22;2719;53.624;9.786;2023-09-19T00:01:39;18.20;99.90
5392;DHT22;2719;53.624;9.786;2023-09-19T00:04:07;18.20;99.90
5392;DHT22;2719;53.624;9.786;2023-09-19T00:06:35;18.10;99.90
5392;DHT22;2719;53.624;9.786;2023-09-19T00:09:02;18.10;99.90
5392;DHT22;2719;53.624;9.786;2023-09-19T00:11:29;18.10;99.90
5392;DHT22;2719;53.624;9.786;2023-09-19T00:13:56;18.10;99.90
5392;DHT22;2719;53.624;9.786;2023-09-19T00:16:25;18.00;99.90
5392;DHT22;2719;53.624;9.786;2023-09-19T00:18:51;18.00;99.90
5392;DHT22;2719;53.624;9.786;2023-09-19T00:21:19;18.00;99.90
5392;DHT22;2719;53.624;9.786;2023-09-19T00:23:46;17.90;99.90
5392;DHT22;2719;53.624;9.786;2023-09-19T00:26:13;18.00;99.90
5392;DHT22;2719;53.624;9.786;2023-09-19T00:28:39;18.00;99.90
5392;DHT22;2719;53.624;9.786;2023-09-19T00:31:07;17.90;99.90
5392;DHT22;2719;53.624;9.786;2023-09-19T00:33:34;17.90;99.90
5392;DHT22;2719;53.624;9.786;2023-09-19T00:36:02;17.90;99.90
5392;DHT22;2719;53.624;9.786;2023-09-19T00:38:32;17.90;99.90
5392;DHT22;2719;53.624;9.786;2023-09-19T00:40:58;17.90;99.90
5392;DHT22;2719;53.624;9.786;2023-09-19T00:43:26;17.90;99.90
5392;DHT22;2719;53.624;9.786;2023-09-19T00:45:54;17.90;99.90
5392;DHT22;2719;53.624;9.786;2023-09-19T00:48:22;17.80;99.90
5392;DHT22;2719;53.624;9.786;2023-09-19T00:50:51;17.80;99.90
5392;DHT22;2719;53.624;9.786;2023-09-19T00:53:21;17.80;99.90
5392;DHT22;2719;53.624;9.786;2023-09-19T00:55:54;17.70;99.90
5392;DHT22;2719;53.624;9.786;2023-09-19T00:58:21;17.70;99.90
5392;DHT22;2719;53.624;9.786;2023-09-19T01:00:48;17.80;99.90
5392;DHT22;2719;53.624;9.786;2023-09-19T01:03:15;17.80;99.90
5392;DHT22;2719;53.624;9.786;2023-09-19T01:05:43;17.80;99.90
5392;DHT22;2719;53.624;9.786;2023-09-19T01:08:10;17.80;99.90
5392;DHT22;2719;53.624;9.786;2023-09-19T01:10:41;17.70;99.90
5392;DHT22;2719;53.624;9.786;2023-09-19T01:13:17;17.70;99.90
5392;DHT22;2719;53.624;9.786;2023-09-19T01:15:53;17.70;99.90
5392;DHT22;2719;53.624;9.786;2023-09-19T01:18:27;17.70;99.90
5392;DHT22;2719;53.624;9.786;2023-09-19T01:21:05;17.60;99.90
5392;DHT22;2719;53.624;9.786;2023-09-19T01:26:35;17.60;99.90
5392;DHT22;2719;53.624;9.786;2023-09-19T01:29:23;17.70;99.90
5392;DHT22;2719;53.624;9.786;2023-09-19T01:31:59;17.60;99.90
5392;DHT22;2719;53.624;9.786;2023-09-19T01:34:43;17.50;99.90
5392;DHT22;2719;53.624;9.786;2023-09-19T01:37:10;17.50;99.90
5392;DHT22;2719;53.624;9.786;2023-09-19T01:39:37;17.50;99.90
5392;DHT22;2719;53.624;9.786;2023-09-19T01:42:09;17.60;99.90
5392;DHT22;2719;53.624;9.786;2023-09-19T01:44:47;17.50;99.90
5392;DHT22;2719;53.624;9.786;2023-09-19T01:47:23;17.50;99.90
5392;DHT22;2719;53.624;9.786;2023-09-19T01:49:58;17.60;99.90
5392;DHT22;2719;53.624;9.786;2023-09-19T01:52:30;17.40;99.90
5392;DHT22;2719;53.624;9.786;2023-09-19T01:55:02;17.40;99.90
5392;DHT22;2719;53.624;9.786;2023-09-19T01:57:35;17.30;99.90
5392;DHT22;2719;53.624;9.786;2023-09-19T02:00:09;17.30;99.90
5392;DHT22;2719;53.624;9.786;2023-09-19T02:02:40;17.30;99.90
5392;DHT22;2719;53.624;9.786;2023-09-19T02:05:08;17.30;99.90
5392;DHT22;2719;53.624;9.786;2023-09-19T02:07:36;17.30;99.90
5392;DHT22;2719;53.624;9.786;2023-09-19T02:10:04;17.20;99.90
5392;DHT22;2719;53.624;9.786;2023-09-19T02:12:31;17.20;99.90
5392;DHT22;2719;53.624;9.786;2023-09-19T02:14:58;17.10;99.90
5392;DHT22;2719;53.624;9.786;2023-09-19T02:17:25;17.10;99.90
5392;DHT22;2719;53.624;9.786;2023-09-19T02:19:53;17.10;99.90
5392;DHT22;2719;53.624;9.786;2023-09-19T02:22:20;17.10;99.90
5392;DHT22;2719;53.624;9.786;2023-09-19T02:24:46;17.10;99.90
5392;DHT22;2719;53.624;9.786;2023-09-19T02:27:14;17.10;99.90
5392;DHT22;2719;53.624;9.786;2023-09-19T02:29:41;17.10;99.90
5392;DHT22;2719;53.624;9.786;2023-09-19T02:32:08;17.10;99.90
5392;DHT22;2719;53.624;9.786;2023-09-19T02:34:35;17.10;99.90
5392;DHT22;2719;53.624;9.786;2023-09-19T02:37:06;17.10;99.90
5392;DHT22;2719;53.624;9.786;2023-09-19T02:39:33;17.00;99.90
5392;DHT22;2719;53.624;9.786;2023-09-19T02:42:00;17.00;99.90
5392;DHT22;2719;53.624;9.786;2023-09-19T02:44:27;17.00;99.90
5392;DHT22;2719;53.624;9.786;2023-09-19T02:46:54;16.90;99.90
5392;DHT22;2719;53.624;9.786;2023-09-19T02:49:20;16.90;99.90
5392;DHT22;2719;53.624;9.786;2023-09-19T02:51:47;16.90;99.90
5392;DHT22;2719;53.624;9.786;2023-09-19T02:54:15;16.90;99.90
5392;DHT22;2719;53.624;9.786;2023-09-19T02:56:43;16.90;99.90
5392;DHT22;2719;53.624;9.786;2023-09-19T02:59:10;16.90;99.90
5392;DHT22;2719;53.624;9.786;2023-09-19T03:01:36;17.00;99.90
5392;DHT22;2719;53.624;9.786;2023-09-19T03:04:04;16.90;99.90
5392;DHT22;2719;53.624;9.786;2023-09-19T03:06:32;17.00;99.90
5392;DHT22;2719;53.624;9.786;2023-09-19T03:08:58;17.00;99.90
5392;DHT22;2719;53.624;9.786;2023-09-19T03:11:27;16.90;99.90
5392;DHT22;2719;53.624;9.786;2023-09-19T03:13:54;16.90;99.90
5392;DHT22;2719;53.624;9.786;2023-09-19T03:16:20;16.90;99.90
5392;DHT22;2719;53.624;9.786;2023-09-19T03:18:48;16.90;99.90
5392;DHT22;2719;53.624;9.786;2023-09-19T03:21:15;16.90;99.90
5392;DHT22;2719;53.624;9.786;2023-09-19T03:23:42;16.90;99.90
5392;DHT22;2719;53.624;9.786;2023-09-19T03:26:10;16.90;99.90
5392;DHT22;2719;53.624;9.786;2023-09-19T03:28:39;16.90;99.90
5392;DHT22;2719;53.624;9.786;2023-09-19T03:31:06;16.90;99.90
5392;DHT22;2719;53.624;9.786;2023-09-19T03:33:33;16.80;99.90
5392;DHT22;2719;53.624;9.786;2023-09-19T03:36:00;16.80;99.90
5392;DHT22;2719;53.624;9.786;2023-09-19T03:38:30;16.80;99.90
5392;DHT22;2719;53.624;9.786;2023-09-19T03:40:57;16.80;99.90
5392;DHT22;2719;53.624;9.786;2023-09-19T03:43:23;16.80;99.90
5392;DHT22;2719;53.624;9.786;2023-09-19T03:45:51;16.80;99.90
5392;DHT22;2719;53.624;9.786;2023-09-19T03:48:19;16.80;99.90
5392;DHT22;2719;53.624;9.786;2023-09-19T03:50:47;16.80;99.90
5392;DHT22;2719;53.624;9.786;2023-09-19T03:53:13;16.80;99.90
5392;DHT22;2719;53.624;9.786;2023-09-19T03:55:40;16.80;99.90
5392;DHT22;2719;53.624;9.786;2023-09-19T03:58:06;16.70;99.90
5392;DHT22;2719;53.624;9.786;2023-09-19T04:00:33;16.70;99.90
5392;DHT22;2719;53.624;9.786;2023-09-19T04:03:01;16.60;99.90
5392;DHT22;2719;53.624;9.786;2023-09-19T04:05:31;16.60;99.90
5392;DHT22;2719;53.624;9.786;2023-09-19T04:07:59;16.50;99.90
5392;DHT22;2719;53.624;9.786;2023-09-19T04:10:25;16.50;99.90
5392;DHT22;2719;53.624;9.786;2023-09-19T04:12:52;16.40;99.90
5392;DHT22;2719;53.624;9.786;2023-09-19T04:15:19;16.40;99.90
5392;DHT22;2719;53.624;9.786;2023-09-19T04:17:48;16.30;99.90
5392;DHT22;2719;53.624;9.786;2023-09-19T04:20:16;16.30;99.90
5392;DHT22;2719;53.624;9.786;2023-09-19T04:22:44;16.20;99.90
5392;DHT22;2719;53.624;9.786;2023-09-19T04:25:10;16.10;99.90
5392;DHT22;2719;53.624;9.786;2023-09-19T04:27:37;16.00;99.90
5392;DHT22;2719;53.624;9.786;2023-09-19T04:30:06;16.00;99.90
5392;DHT22;2719;53.624;9.786;2023-09-19T04:32:36;16.00;99.90
5392;DHT22;2719;53.624;9.786;2023-09-19T04:35:04;16.00;99.90
5392;DHT22;2719;53.624;9.786;2023-09-19T04:37:36;15.90;99.90
5392;DHT22;2719;53.624;9.786;2023-09-19T04:40:03;15.80;99.90
5392;DHT22;2719;53.624;9.786;2023-09-19T04:42:31;15.80;99.90
5392;DHT22;2719;53.624;9.786;2023-09-19T04:44:58;15.80;99.90
5392;DHT22;2719;53.624;9.786;2023-09-19T04:47:25;15.80;99.90
5392;DHT22;2719;53.624;9.786;2023-09-19T04:49:52;15.80;99.90
5392;DHT22;2719;53.624;9.786;2023-09-19T04:52:18;15.80;99.90
5392;DHT22;2719;53.624;9.786;2023-09-19T04:54:47;15.80;99.90
5392;DHT22;2719;53.624;9.786;2023-09-19T04:57:13;15.70;99.90
5392;DHT22;2719;53.624;9.786;2023-09-19T04:59:40;15.60;99.90
5392;DHT22;2719;53.624;9.786;2023-09-19T05:02:07;15.60;99.90
5392;DHT22;2719;53.624;9.786;2023-09-19T05:04:34;15.60;99.90
5392;DHT22;2719;53.624;9.786;2023-09-19T05:07:01;15.60;99.90
5392;DHT22;2719;53.624;9.786;2023-09-19T05:09:29;15.60;99.90
5392;DHT22;2719;53.624;9.786;2023-09-19T05:11:57;15.60;99.90
5392;DHT22;2719;53.624;9.786;2023-09-19T05:14:24;15.60;99.90
5392;DHT22;2719;53.624;9.786;2023-09-19T05:16:50;15.50;99.90
5392;DHT22;2719;53.624;9.786;2023-09-19T05:19:17;15.50;99.90
5392;DHT22;2719;53.624;9.786;2023-09-19T05:21:43;15.50;99.90
5392;DHT22;2719;53.624;9.786;2023-09-19T05:24:10;15.50;99.90
5392;DHT22;2719;53.624;9.786;2023-09-19T05:26:37;15.50;99.90
5392;DHT22;2719;53.624;9.786;2023-09-19T05:29:06;15.60;99.90
5392;DHT22;2719;53.624;9.786;2023-09-19T05:31:33;15.50;99.90
5392;DHT22;2719;53.624;9.786;2023-09-19T05:34:01;15.60;99.90
5392;DHT22;2719;53.624;9.786;2023-09-19T05:36:28;15.60;99.90
5392;DHT22;2719;53.624;9.786;2023-09-19T05:38:56;15.50;99.90
5392;DHT22;2719;53.624;9.786;2023-09-19T05:41:22;15.50;99.90
5392;DHT22;2719;53.624;9.786;2023-09-19T05:43:49;15.40;99.90
5392;DHT22;2719;53.624;9.786;2023-09-19T05:46:17;15.40;99.90
5392;DHT22;2719;53.624;9.786;2023-09-19T05:48:44;15.40;99.90
5392;DHT22;2719;53.624;9.786;2023-09-19T05:51:13;15.30;99.90
5392;DHT22;2719;53.624;9.786;2023-09-19T05:53:39;15.30;99.90
5392;DHT22;2719;53.624;9.786;2023-09-19T05:56:09;15.40;99.90
5392;DHT22;2719;53.624;9.786;2023-09-19T05:58:36;15.40;99.90
5392;DHT22;2719;53.624;9.786;2023-09-19T06:01:04;15.50;99.90
5392;DHT22;2719;53.624;9.786;2023-09-19T06:03:34;15.40;99.90
5392;DHT22;2719;53.624;9.786;2023-09-19T06:06:01;15.30;99.90
5392;DHT22;2719;53.624;9.786;2023-09-19T06:08:27;15.40;99.90
5392;DHT22;2719;53.624;9.786;2023-09-19T06:10:56;15.40;99.90
5392;DHT22;2719;53.624;9.786;2023-09-19T06:13:23;15.50;99.90
5392;DHT22;2719;53.624;9.786;2023-09-19T06:15:52;15.50;99.90
5392;DHT22;2719;53.624;9.786;2023-09-19T06:18:19;15.60;99.90
5392;DHT22;2719;53.624;9.786;2023-09-19T06:20:47;15.70;99.90
5392;DHT22;2719;53.624;9.786;2023-09-19T06:23:16;15.70;99.90
5392;DHT22;2719;53.624;9.786;2023-09-19T06:25:43;15.70;99.90
5392;DHT22;2719;53.624;9.786;2023-09-19T06:28:10;15.50;99.90
5392;DHT22;2719;53.624;9.786;2023-09-19T06:30:38;15.60;99.90
5392;DHT22;2719;53.624;9.786;2023-09-19T06:33:29;15.60;99.90
5392;DHT22;2719;53.624;9.786;2023-09-19T06:35:58;15.60;99.90
5392;DHT22;2719;53.624;9.786;2023-09-19T06:38:25;15.50;99.90
5392;DHT22;2719;53.624;9.786;2023-09-19T06:40:53;15.60;99.90
5392;DHT22;2719;53.624;9.786;2023-09-19T06:43:19;15.60;99.90
5392;DHT22;2719;53.624;9.786;2023-09-19T06:45:46;15.60;99.90
5392;DHT22;2719;53.624;9.786;2023-09-19T06:48:13;15.60;99.90
5392;DHT22;2719;53.624;9.786;2023-09-19T06:50:40;15.70;99.90
5392;DHT22;2719;53.624;9.786;2023-09-19T06:53:08;15.60;99.90
5392;DHT22;2719;53.624;9.786;2023-09-19T06:55:35;15.70;99.90
5392;DHT22;2719;53.624;9.786;2023-09-19T06:58:25;15.70;99.90
5392;DHT22;2719;53.624;9.786;2023-09-19T07:00:52;15.70;99.90
5392;DHT22;2719;53.624;9.786;2023-09-19T07:03:19;15.70;99.90
5392;DHT22;2719;53.624;9.786;2023-09-19T07:05:47;15.70;99.90
5392;DHT22;2719;53.624;9.786;2023-09-19T07:08:15;15.70;99.90
5392;DHT22;2719;53.624;9.786;2023-09-19T07:10:45;15.80;99.90
5392;DHT22;2719;53.624;9.786;2023-09-19T07:13:14;15.80;99.90
5392;DHT22;2719;53.624;9.786;2023-09-19T07:15:42;15.80;99.90
5392;DHT22;2719;53.624;9.786;2023-09-19T07:18:12;15.80;99.90
5392;DHT22;2719;53.624;9.786;2023-09-19T07:20:40;15.80;99.90
5392;DHT22;2719;53.624;9.786;2023-09-19T07:23:11;15.80;99.90
5392;DHT22;2719;53.624;9.786;2023-09-19T07:25:41;15.80;99.90
5392;DHT22;2719;53.624;9.786;2023-09-19T07:28:07;15.90;99.90
5392;DHT22;2719;53.624;9.786;2023-09-19T07:30:36;15.90;99.90
5392;DHT22;2719;53.624;9.786;2023-09-19T07:33:04;15.80;99.90
5392;DHT22;2719;53.624;9.786;2023-09-19T07:35:31;15.70;99.90
5392;DHT22;2719;53.624;9.786;2023-09-19T07:37:58;15.70;99.90
5392;DHT22;2719;53.624;9.786;2023-09-19T07:40:27;15.80;99.90
5392;DHT22;2719;53.624;9.786;2023-09-19T07:42:55;15.80;99.90
5392;DHT22;2719;53.624;9.786;2023-09-19T07:45:22;15.80;99.90
5392;DHT22;2719;53.624;9.786;2023-09-19T07:47:51;15.90;99.90
5392;DHT22;2719;53.624;9.786;2023-09-19T07:50:18;15.90;99.90
5392;DHT22;2719;53.624;9.786;2023-09-19T07:52:45;15.80;99.90
5392;DHT22;2719;53.624;9.786;2023-09-19T07:55:12;15.70;99.90
5392;DHT22;2719;53.624;9.786;2023-09-19T07:57:41;15.70;99.90
5392;DHT22;2719;53.624;9.786;2023-09-19T08:00:11;15.80;99.90
5392;DHT22;2719;53.624;9.786;2023-09-19T08:02:39;15.70;99.90
5392;DHT22;2719;53.624;9.786;2023-09-19T08:05:06;15.70;99.90
5392;DHT22;2719;53.624;9.786;2023-09-19T08:07:35;15.80;99.90
5392;DHT22;2719;53.624;9.786;2023-09-19T08:10:02;15.80;99.90
5392;DHT22;2719;53.624;9.786;2023-09-19T08:12:29;15.70;99.90
5392;DHT22;2719;53.624;9.786;2023-09-19T08:14:58;15.80;99.90
5392;DHT22;2719;53.624;9.786;2023-09-19T08:17:26;15.90;99.90
5392;DHT22;2719;53.624;9.786;2023-09-19T08:19:52;15.90;99.90
5392;DHT22;2719;53.624;9.786;2023-09-19T08:22:19;15.90;99.90
5392;DHT22;2719;53.624;9.786;2023-09-19T08:24:47;15.90;99.90
5392;DHT22;2719;53.624;9.786;2023-09-19T08:27:14;15.90;99.90
5392;DHT22;2719;53.624;9.786;2023-09-19T08:29:43;15.90;99.90
5392;DHT22;2719;53.624;9.786;2023-09-19T08:32:10;16.00;99.90
5392;DHT22;2719;53.624;9.786;2023-09-19T08:34:39;15.90;99.90
5392;DHT22;2719;53.624;9.786;2023-09-19T08:37:06;15.90;99.90
5392;DHT22;2719;53.624;9.786;2023-09-19T08:39:33;16.00;99.90
5392;DHT22;2719;53.624;9.786;2023-09-19T08:42:02;15.90;99.90
5392;DHT22;2719;53.624;9.786;2023-09-19T08:44:30;15.90;99.90
5392;DHT22;2719;53.624;9.786;2023-09-19T08:47:09;15.90;99.90
5392;DHT22;2719;53.624;9.786;2023-09-19T08:49:53;15.90;99.90
5392;DHT22;2719;53.624;9.786;2023-09-19T08:52:25;16.00;99.90
5392;DHT22;2719;53.624;9.786;2023-09-19T08:54:58;16.00;99.90
5392;DHT22;2719;53.624;9.786;2023-09-19T08:57:29;16.00;99.90
5392;DHT22;2719;53.624;9.786;2023-09-19T08:59:57;16.00;99.90
5392;DHT22;2719;53.624;9.786;2023-09-19T09:02:26;16.00;99.90
5392;DHT22;2719;53.624;9.786;2023-09-19T09:04:55;16.00;99.90
5392;DHT22;2719;53.624;9.786;2023-09-19T09:07:24;16.10;99.90
5392;DHT22;2719;53.624;9.786;2023-09-19T09:09:53;16.10;99.90
5392;DHT22;2719;53.624;9.786;2023-09-19T09:12:19;16.10;99.90
5392;DHT22;2719;53.624;9.786;2023-09-19T09:14:46;16.20;99.90
5392;DHT22;2719;53.624;9.786;2023-09-19T09:17:14;16.10;99.90
5392;DHT22;2719;53.624;9.786;2023-09-19T09:19:41;16.20;99.90
5392;DHT22;2719;53.624;9.786;2023-09-19T09:22:11;16.30;99.90
5392;DHT22;2719;53.624;9.786;2023-09-19T09:24:51;16.30;99.90
5392;DHT22;2719;53.624;9.786;2023-09-19T09:27:19;16.40;99.90
5392;DHT22;2719;53.624;9.786;2023-09-19T09:29:50;16.40;99.90
5392;DHT22;2719;53.624;9.786;2023-09-19T09:32:19;16.50;99.90
5392;DHT22;2719;53.624;9.786;2023-09-19T09:34:46;16.60;99.90
5392;DHT22;2719;53.624;9.786;2023-09-19T09:37:16;16.60;99.90
5392;DHT22;2719;53.624;9.786;2023-09-19T09:39:49;16.70;99.90
5392;DHT22;2719;53.624;9.786;2023-09-19T09:42:30;16.70;99.90
5392;DHT22;2719;53.624;9.786;2023-09-19T09:45:14;16.90;99.90
5392;DHT22;2719;53.624;9.786;2023-09-19T09:47:42;16.90;99.90
5392;DHT22;2719;53.624;9.786;2023-09-19T09:50:23;17.00;99.90
5392;DHT22;2719;53.624;9.786;2023-09-19T09:52:56;17.10;99.90
5392;DHT22;2719;53.624;9.786;2023-09-19T09:55:59;17.00;99.90
5392;DHT22;2719;53.624;9.786;2023-09-19T09:58:27;17.00;99.90
5392;DHT22;2719;53.624;9.786;2023-09-19T10:00:57;17.10;99.90
5392;DHT22;2719;53.624;9.786;2023-09-19T10:03:32;17.10;99.90
5392;DHT22;2719;53.624;9.786;2023-09-19T10:06:04;17.20;99.90
5392;DHT22;2719;53.624;9.786;2023-09-19T10:08:59;17.30;99.90
5392;DHT22;2719;53.624;9.786;2023-09-19T10:11:41;17.40;99.90
5392;DHT22;2719;53.624;9.786;2023-09-19T10:14:09;17.40;99.90
5392;DHT22;2719;53.624;9.786;2023-09-19T10:16:41;17.40;99.90
5392;DHT22;2719;53.624;9.786;2023-09-19T10:19:15;17.40;99.90
5392;DHT22;2719;53.624;9.786;2023-09-19T10:21:41;17.50;99.90
5392;DHT22;2719;53.624;9.786;2023-09-19T10:24:13;17.50;99.90
5392;DHT22;2719;53.624;9.786;2023-09-19T10:26:42;17.70;99.90
5392;DHT22;2719;53.624;9.786;2023-09-19T10:29:12;17.70;99.90
5392;DHT22;2719;53.624;9.786;2023-09-19T10:31:39;17.70;99.90
5392;DHT22;2719;53.624;9.786;2023-09-19T10:34:14;17.60;99.90
5392;DHT22;2719;53.624;9.786;2023-09-19T10:36:44;17.60;99.90
5392;DHT22;2719;53.624;9.786;2023-09-19T10:39:15;17.60;99.90
5392;DHT22;2719;53.624;9.786;2023-09-19T10:41:50;17.60;99.90
5392;DHT22;2719;53.624;9.786;2023-09-19T10:44:23;17.70;99.90
5392;DHT22;2719;53.624;9.786;2023-09-19T10:46:50;17.70;99.90
5392;DHT22;2719;53.624;9.786;2023-09-19T10:49:18;17.80;99.90
5392;DHT22;2719;53.624;9.786;2023-09-19T10:51:46;17.90;99.90
5392;DHT22;2719;53.624;9.786;2023-09-19T10:54:18;17.80;99.90
5392;DHT22;2719;53.624;9.786;2023-09-19T10:56:48;17.80;99.90
5392;DHT22;2719;53.624;9.786;2023-09-19T10:59:16;17.90;99.90
5392;DHT22;2719;53.624;9.786;2023-09-19T11:01:45;17.80;99.90
5392;DHT22;2719;53.624;9.786;2023-09-19T11:04:27;17.90;99.90
5392;DHT22;2719;53.624;9.786;2023-09-19T11:07:02;17.90;99.90
5392;DHT22;2719;53.624;9.786;2023-09-19T11:09:50;17.90;99.90
5392;DHT22;2719;53.624;9.786;2023-09-19T11:12:49;17.80;99.90
5392;DHT22;2719;53.624;9.786;2023-09-19T11:18:52;17.90;99.90
5392;DHT22;2719;53.624;9.786;2023-09-19T11:21:38;18.00;99.90
5392;DHT22;2719;53.624;9.786;2023-09-19T11:24:29;18.10;99.90
5392;DHT22;2719;53.624;9.786;2023-09-19T11:27:15;18.20;99.90
5392;DHT22;2719;53.624;9.786;2023-09-19T11:29:43;18.30;99.90
5392;DHT22;2719;53.624;9.786;2023-09-19T11:32:10;18.40;99.90
5392;DHT22;2719;53.624;9.786;2023-09-19T11:34:38;18.50;99.90
5392;DHT22;2719;53.624;9.786;2023-09-19T11:40:37;18.50;99.90
5392;DHT22;2719;53.624;9.786;2023-09-19T11:43:30;18.60;99.90
5392;DHT22;2719;53.624;9.786;2023-09-19T11:46:05;18.70;99.90
5392;DHT22;2719;53.624;9.786;2023-09-19T11:48:32;18.60;99.90
5392;DHT22;2719;53.624;9.786;2023-09-19T11:51:00;18.50;99.90
5392;DHT22;2719;53.624;9.786;2023-09-19T11:53:33;18.50;99.90
5392;DHT22;2719;53.624;9.786;2023-09-19T11:56:01;18.50;99.90
5392;DHT22;2719;53.624;9.786;2023-09-19T11:58:28;18.60;99.90
5392;DHT22;2719;53.624;9.786;2023-09-19T12:00:59;18.60;99.90
5392;DHT22;2719;53.624;9.786;2023-09-19T12:03:31;18.60;99.90
5392;DHT22;2719;53.624;9.786;2023-09-19T12:05:59;18.80;99.90
5392;DHT22;2719;53.624;9.786;2023-09-19T12:08:28;18.60;99.90
5392;DHT22;2719;53.624;9.786;2023-09-19T12:10:55;18.70;99.90
5392;DHT22;2719;53.624;9.786;2023-09-19T12:13:23;18.70;99.90
5392;DHT22;2719;53.624;9.786;2023-09-19T12:15:51;18.80;99.90
5392;DHT22;2719;53.624;9.786;2023-09-19T12:18:28;18.80;99.90
5392;DHT22;2719;53.624;9.786;2023-09-19T12:20:55;18.90;99.90
5392;DHT22;2719;53.624;9.786;2023-09-19T12:23:23;19.10;99.90
5392;DHT22;2719;53.624;9.786;2023-09-19T12:25:51;19.00;99.90
5392;DHT22;2719;53.624;9.786;2023-09-19T12:28:21;19.10;99.90
5392;DHT22;2719;53.624;9.786;2023-09-19T12:30:49;19.20;99.90
5392;DHT22;2719;53.624;9.786;2023-09-19T12:33:17;19.20;99.90
5392;DHT22;2719;53.624;9.786;2023-09-19T12:35:46;19.30;99.90
5392;DHT22;2719;53.624;9.786;2023-09-19T12:38:25;19.30;99.90
5392;DHT22;2719;53.624;9.786;2023-09-19T12:40:54;19.40;99.90
5392;DHT22;2719;53.624;9.786;2023-09-19T12:43:22;19.50;99.90
5392;DHT22;2719;53.624;9.786;2023-09-19T12:45:49;19.40;99.90
5392;DHT22;2719;53.624;9.786;2023-09-19T12:48:22;19.40;99.90
5392;DHT22;2719;53.624;9.786;2023-09-19T12:51:06;19.30;99.90
5392;DHT22;2719;53.624;9.786;2023-09-19T12:53:36;19.30;99.90
5392;DHT22;2719;53.624;9.786;2023-09-19T12:56:06;19.30;99.90
5392;DHT22;2719;53.624;9.786;2023-09-19T12:58:34;19.40;99.90
5392;DHT22;2719;53.624;9.786;2023-09-19T13:01:14;19.40;99.90
5392;DHT22;2719;53.624;9.786;2023-09-19T13:03:40;19.50;99.90
5392;DHT22;2719;53.624;9.786;2023-09-19T13:06:08;19.40;99.90
5392;DHT22;2719;53.624;9.786;2023-09-19T13:08:36;19.50;99.90
5392;DHT22;2719;53.624;9.786;2023-09-19T13:11:06;19.70;99.90
5392;DHT22;2719;53.624;9.786;2023-09-19T13:13:32;19.70;99.90
5392;DHT22;2719;53.624;9.786;2023-09-19T13:16:02;19.90;99.90
5392;DHT22;2719;53.624;9.786;2023-09-19T13:18:30;19.80;99.90
5392;DHT22;2719;53.624;9.786;2023-09-19T13:21:09;19.80;99.90
5392;DHT22;2719;53.624;9.786;2023-09-19T13:23:41;19.80;99.90
5392;DHT22;2719;53.624;9.786;2023-09-19T13:26:09;19.90;99.90
5392;DHT22;2719;53.624;9.786;2023-09-19T13:28:37;19.90;99.90
5392;DHT22;2719;53.624;9.786;2023-09-19T13:31:03;19.90;99.90
5392;DHT22;2719;53.624;9.786;2023-09-19T13:33:31;20.00;99.90
5392;DHT22;2719;53.624;9.786;2023-09-19T13:35:58;19.90;99.90
5392;DHT22;2719;53.624;9.786;2023-09-19T13:38:26;20.00;99.90
5392;DHT22;2719;53.624;9.786;2023-09-19T13:40:54;20.10;99.90
5392;DHT22;2719;53.624;9.786;2023-09-19T13:43:21;20.20;99.90
5392;DHT22;2719;53.624;9.786;2023-09-19T13:45:48;20.30;99.90
5392;DHT22;2719;53.624;9.786;2023-09-19T13:48:15;20.40;99.90
5392;DHT22;2719;53.624;9.786;2023-09-19T13:50:48;20.40;99.90
5392;DHT22;2719;53.624;9.786;2023-09-19T13:53:14;20.30;99.90
5392;DHT22;2719;53.624;9.786;2023-09-19T13:55:43;20.20;99.90
5392;DHT22;2719;53.624;9.786;2023-09-19T13:58:10;20.20;99.90
5392;DHT22;2719;53.624;9.786;2023-09-19T14:00:38;20.20;99.90
5392;DHT22;2719;53.624;9.786;2023-09-19T14:03:04;20.10;99.90
5392;DHT22;2719;53.624;9.786;2023-09-19T14:05:31;20.10;99.90
5392;DHT22;2719;53.624;9.786;2023-09-19T14:07:58;20.20;99.80
5392;DHT22;2719;53.624;9.786;2023-09-19T14:10:24;20.20;99.50
5392;DHT22;2719;53.624;9.786;2023-09-19T14:12:54;20.20;99.90
5392;DHT22;2719;53.624;9.786;2023-09-19T14:15:21;20.40;99.90
5392;DHT22;2719;53.624;9.786;2023-09-19T14:17:54;20.30;99.80
5392;DHT22;2719;53.624;9.786;2023-09-19T14:20:21;20.40;99.80
5392;DHT22;2719;53.624;9.786;2023-09-19T14:22:48;20.40;99.40
5392;DHT22;2719;53.624;9.786;2023-09-19T14:25:15;20.30;99.90
5392;DHT22;2719;53.624;9.786;2023-09-19T14:27:42;20.20;99.90
5392;DHT22;2719;53.624;9.786;2023-09-19T14:30:11;20.10;99.90
5392;DHT22;2719;53.624;9.786;2023-09-19T14:32:37;20.10;99.90
5392;DHT22;2719;53.624;9.786;2023-09-19T14:35:05;20.00;99.90
5392;DHT22;2719;53.624;9.786;2023-09-19T14:37:32;19.90;99.90
5392;DHT22;2719;53.624;9.786;2023-09-19T14:39:58;19.70;99.90
5392;DHT22;2719;53.624;9.786;2023-09-19T14:42:25;19.60;99.90
5392;DHT22;2719;53.624;9.786;2023-09-19T14:44:52;19.60;99.90
5392;DHT22;2719;53.624;9.786;2023-09-19T14:47:20;19.60;99.90
5392;DHT22;2719;53.624;9.786;2023-09-19T14:49:48;19.60;99.90
5392;DHT22;2719;53.624;9.786;2023-09-19T14:52:14;19.60;99.90
5392;DHT22;2719;53.624;9.786;2023-09-19T14:54:41;19.50;99.90
5392;DHT22;2719;53.624;9.786;2023-09-19T14:57:08;19.50;99.90
5392;DHT22;2719;53.624;9.786;2023-09-19T14:59:35;19.50;99.90
5392;DHT22;2719;53.624;9.786;2023-09-19T15:02:03;19.50;99.90
5392;DHT22;2719;53.624;9.786;2023-09-19T15:04:31;19.50;99.90
5392;DHT22;2719;53.624;9.786;2023-09-19T15:06:58;19.50;99.90
5392;DHT22;2719;53.624;9.786;2023-09-19T15:09:25;19.40;99.90
5392;DHT22;2719;53.624;9.786;2023-09-19T15:11:52;19.30;99.90
5392;DHT22;2719;53.624;9.786;2023-09-19T15:14:19;19.30;99.90
5392;DHT22;2719;53.624;9.786;2023-09-19T15:16:46;19.30;99.90
5392;DHT22;2719;53.624;9.786;2023-09-19T15:19:13;19.30;99.90
5392;DHT22;2719;53.624;9.786;2023-09-19T15:21:41;19.30;99.90
5392;DHT22;2719;53.624;9.786;2023-09-19T15:24:08;19.20;99.90
5392;DHT22;2719;53.624;9.786;2023-09-19T15:26:35;19.30;99.90
5392;DHT22;2719;53.624;9.786;2023-09-19T15:29:04;19.20;99.90
5392;DHT22;2719;53.624;9.786;2023-09-19T15:31:31;19.20;99.90
5392;DHT22;2719;53.624;9.786;2023-09-19T15:33:58;19.20;99.90
5392;DHT22;2719;53.624;9.786;2023-09-19T15:36:24;19.20;99.90
5392;DHT22;2719;53.624;9.786;2023-09-19T15:38:58;19.20;99.90
5392;DHT22;2719;53.624;9.786;2023-09-19T15:41:25;19.20;99.90
5392;DHT22;2719;53.624;9.786;2023-09-19T15:43:52;19.20;99.90
5392;DHT22;2719;53.624;9.786;2023-09-19T15:46:19;19.10;99.90
5392;DHT22;2719;53.624;9.786;2023-09-19T15:48:46;19.10;99.90
5392;DHT22;2719;53.624;9.786;2023-09-19T15:51:13;19.10;99.90
5392;DHT22;2719;53.624;9.786;2023-09-19T15:53:43;19.10;99.90
5392;DHT22;2719;53.624;9.786;2023-09-19T15:56:12;19.10;99.90
5392;DHT22;2719;53.624;9.786;2023-09-19T15:58:39;19.00;99.90
5392;DHT22;2719;53.624;9.786;2023-09-19T16:01:07;19.00;99.90
5392;DHT22;2719;53.624;9.786;2023-09-19T16:03:34;19.00;99.90
5392;DHT22;2719;53.624;9.786;2023-09-19T16:06:01;19.00;99.90
5392;DHT22;2719;53.624;9.786;2023-09-19T16:08:29;19.00;99.90
5392;DHT22;2719;53.624;9.786;2023-09-19T16:10:56;19.00;99.90
5392;DHT22;2719;53.624;9.786;2023-09-19T16:13:24;19.00;99.90
5392;DHT22;2719;53.624;9.786;2023-09-19T16:15:51;19.00;99.90
5392;DHT22;2719;53.624;9.786;2023-09-19T16:18:17;19.00;99.90
5392;DHT22;2719;53.624;9.786;2023-09-19T16:20:44;19.00;99.90
5392;DHT22;2719;53.624;9.786;2023-09-19T16:23:12;19.00;99.90
5392;DHT22;2719;53.624;9.786;2023-09-19T16:25:38;19.00;99.90